createdAt,value
2018-05-11T00:02:22.306Z,99.90
2018-05-11T00:04:50.616Z,99.90
2018-05-11T00:07:18.141Z,99.90
2018-05-11T00:09:46.470Z,99.90
2018-05-11T00:12:13.994Z,99.90
2018-05-11T00:14:42.303Z,99.90
2018-05-11T00:17:09.833Z,99.90
2018-05-11T00:19:38.145Z,99.90
2018-05-11T00:22:05.718Z,99.90
2018-05-11T00:24:33.260Z,99.90
2018-05-11T00:27:00.784Z,99.90
2018-05-11T00:29:29.100Z,99.90
2018-05-11T00:31:56.630Z,99.90
2018-05-11T00:34:24.176Z,99.90
2018-05-11T00:36:51.705Z,99.90
2018-05-11T00:39:19.257Z,99.90
2018-05-11T00:41:46.785Z,99.90
2018-05-11T00:44:15.838Z,99.90
2018-05-11T00:46:43.364Z,99.90
2018-05-11T00:49:11.669Z,99.90
2018-05-11T00:51:39.196Z,99.90
2018-05-11T00:54:06.744Z,99.90
2018-05-11T00:56:35.086Z,99.90
2018-05-11T00:59:02.611Z,99.90
2018-05-11T01:01:30.920Z,99.90
2018-05-11T01:03:58.440Z,99.90
2018-05-11T01:06:25.987Z,99.90
2018-05-11T01:08:53.516Z,99.90
2018-05-11T01:11:21.060Z,99.90
2018-05-11T01:13:48.588Z,99.90
2018-05-11T01:16:16.933Z,99.90
2018-05-11T01:18:44.440Z,99.90
2018-05-11T01:21:12.753Z,99.90
2018-05-11T01:23:40.285Z,99.90
2018-05-11T01:26:08.596Z,99.90
2018-05-11T01:28:36.120Z,99.90
2018-05-11T01:31:04.423Z,99.90
2018-05-11T01:33:31.958Z,99.90
2018-05-11T01:36:00.288Z,99.90
2018-05-11T01:38:27.809Z,99.90
2018-05-11T01:40:56.117Z,99.90
2018-05-11T01:43:23.638Z,99.90
2018-05-11T01:45:51.696Z,99.90
2018-05-11T01:48:19.241Z,99.90
2018-05-11T01:50:46.763Z,99.90
2018-05-11T01:53:15.068Z,99.90
2018-05-11T01:55:42.588Z,99.90
2018-05-11T01:58:10.129Z,99.90
2018-05-11T02:00:37.665Z,99.90
2018-05-11T02:03:05.208Z,99.90
2018-05-11T02:05:32.734Z,99.90
2018-05-11T02:08:01.041Z,99.90
2018-05-11T02:10:29.328Z,99.90
2018-05-11T02:12:56.874Z,99.90
2018-05-11T02:15:25.160Z,99.90
2018-05-11T02:17:53.464Z,99.90
2018-05-11T02:20:20.985Z,99.90
2018-05-11T02:22:48.529Z,99.90
2018-05-11T02:25:16.052Z,99.90
2018-05-11T02:27:43.601Z,99.90
2018-05-11T02:30:11.140Z,99.90
2018-05-11T02:32:38.675Z,99.90
2018-05-11T02:35:06.229Z,99.90
2018-05-11T02:37:33.749Z,99.90
2018-05-11T02:40:02.062Z,99.90
2018-05-11T02:42:29.619Z,99.90
2018-05-11T02:44:57.164Z,99.90
2018-05-11T02:47:24.691Z,99.90
2018-05-11T02:49:53.746Z,99.90
2018-05-11T02:52:21.265Z,99.90
2018-05-11T02:54:49.572Z,99.90
2018-05-11T02:57:17.149Z,99.90
2018-05-11T02:59:44.692Z,99.90
2018-05-11T03:02:12.213Z,99.90
2018-05-11T03:04:41.169Z,99.90
2018-05-11T03:07:08.784Z,99.90
2018-05-11T03:09:36.264Z,99.90
2018-05-11T03:12:04.550Z,99.90
2018-05-11T03:14:32.836Z,99.90
2018-05-11T03:17:00.380Z,99.90
2018-05-11T03:19:28.672Z,99.90
2018-05-11T03:21:56.982Z,99.90
2018-05-11T03:24:24.504Z,99.90
2018-05-11T03:26:52.814Z,99.90
2018-05-11T03:29:20.340Z,99.90
2018-05-11T03:31:47.876Z,99.90
2018-05-11T03:34:15.403Z,99.90
2018-05-11T03:36:42.949Z,99.90
2018-05-11T03:39:10.468Z,99.90
2018-05-11T03:41:38.009Z,99.90
2018-05-11T03:44:05.534Z,99.90
2018-05-11T03:46:33.849Z,99.90
2018-05-11T03:49:01.376Z,99.90
2018-05-11T03:51:29.688Z,99.90
2018-05-11T03:53:57.212Z,99.90
2018-05-11T03:56:25.510Z,99.90
2018-05-11T03:58:53.050Z,99.90
2018-05-11T04:01:32.366Z,99.90
2018-05-11T04:04:11.886Z,99.90
2018-05-11T04:06:51.253Z,99.90
2018-05-11T04:09:18.809Z,99.90
2018-05-11T04:11:46.330Z,99.90
2018-05-11T04:14:13.877Z,99.90
2018-05-11T04:16:42.241Z,99.90
2018-05-11T04:19:10.548Z,99.90
2018-05-11T04:21:38.074Z,99.90
2018-05-11T04:24:05.630Z,99.90
2018-05-11T04:26:33.156Z,99.90
2018-05-11T04:29:00.705Z,99.90
2018-05-11T04:31:28.226Z,99.90
2018-05-11T04:33:55.771Z,99.90
2018-05-11T04:36:23.297Z,99.90
2018-05-11T04:38:50.847Z,99.90
2018-05-11T04:41:19.128Z,99.90
2018-05-11T04:43:46.666Z,99.90
2018-05-11T04:46:14.961Z,99.90
2018-05-11T04:48:43.274Z,99.90
2018-05-11T04:51:10.797Z,99.90
2018-05-11T04:53:39.103Z,99.90
2018-05-11T04:56:06.634Z,99.90
2018-05-11T04:58:34.189Z,99.90
2018-05-11T05:01:02.473Z,99.90
2018-05-11T05:03:29.999Z,99.90
2018-05-11T05:05:57.546Z,99.90
2018-05-11T05:08:25.072Z,99.90
2018-05-11T05:10:53.381Z,99.90
2018-05-11T05:13:20.905Z,99.90
2018-05-11T05:15:48.530Z,99.90
2018-05-11T05:18:16.052Z,99.90
2018-05-11T05:20:44.362Z,99.90
2018-05-11T05:23:11.915Z,99.90
2018-05-11T05:25:39.448Z,99.90
2018-05-11T05:28:07.736Z,99.90
2018-05-11T05:30:36.044Z,99.90
2018-05-11T05:33:03.650Z,99.90
2018-05-11T05:35:31.125Z,99.90
2018-05-11T05:37:58.643Z,99.90
2018-05-11T05:40:26.182Z,99.90
2018-05-11T05:42:53.704Z,99.90
2018-05-11T05:45:21.244Z,99.90
2018-05-11T05:47:48.773Z,99.90
2018-05-11T05:50:16.349Z,99.90
2018-05-11T05:52:43.868Z,99.90
2018-05-11T05:55:12.177Z,99.90
2018-05-11T05:57:39.759Z,99.90
2018-05-11T06:00:07.306Z,99.90
2018-05-11T06:02:34.944Z,99.90
2018-05-11T06:05:02.405Z,99.90
2018-05-11T06:07:31.642Z,97.80
2018-05-11T06:09:59.200Z,97.80
2018-05-11T06:12:26.728Z,96.30
2018-05-11T06:14:54.253Z,95.70
2018-05-11T06:17:21.801Z,95.20
2018-05-11T06:19:49.324Z,94.50
2018-05-11T06:22:17.627Z,93.00
2018-05-11T06:24:45.192Z,92.60
2018-05-11T06:27:13.491Z,90.10
2018-05-11T06:29:41.014Z,90.10
2018-05-11T06:32:09.320Z,83.90
2018-05-11T06:34:36.908Z,83.70
2018-05-11T06:37:04.458Z,81.90
2018-05-11T06:39:31.984Z,76.70
2018-05-11T06:42:00.301Z,78.90
2018-05-11T06:44:27.821Z,78.80
2018-05-11T06:46:56.136Z,74.90
2018-05-11T06:49:23.658Z,74.30
2018-05-11T06:51:51.203Z,75.60
2018-05-11T06:54:18.733Z,73.20
2018-05-11T06:56:46.292Z,70.30
2018-05-11T06:59:13.820Z,72.30
2018-05-11T07:01:42.201Z,73.00
2018-05-11T07:04:09.677Z,72.90
2018-05-11T07:06:37.205Z,71.70
2018-05-11T07:09:04.752Z,69.50
2018-05-11T07:11:32.277Z,71.50
2018-05-11T07:13:59.828Z,68.20
2018-05-11T07:16:27.358Z,69.40
2018-05-11T07:18:54.902Z,73.50
2018-05-11T07:21:22.428Z,72.60
2018-05-11T07:23:49.968Z,74.20
2018-05-11T07:26:18.257Z,73.20
2018-05-11T07:28:46.564Z,71.50
2018-05-11T07:31:14.098Z,71.50
2018-05-11T07:33:41.652Z,69.80
2018-05-11T07:36:09.940Z,70.30
2018-05-11T07:38:37.484Z,70.30
2018-05-11T07:41:05.787Z,69.70
2018-05-11T07:43:33.334Z,69.60
2018-05-11T07:46:01.634Z,68.10
2018-05-11T07:48:29.184Z,68.10
2018-05-11T07:50:57.474Z,77.40
2018-05-11T07:53:25.029Z,77.40
2018-05-11T07:55:53.322Z,79.60
2018-05-11T07:58:20.850Z,79.50
2018-05-11T08:00:48.395Z,76.40
2018-05-11T08:03:15.928Z,75.10
2018-05-11T08:05:43.487Z,71.10
2018-05-11T08:08:11.014Z,72.80
2018-05-11T08:10:39.324Z,67.00
2018-05-11T08:13:06.843Z,67.00
2018-05-11T08:15:34.386Z,74.60
2018-05-11T08:18:01.918Z,74.10
2018-05-11T08:20:29.505Z,70.60
2018-05-11T08:22:57.024Z,70.80
2018-05-11T08:25:25.333Z,68.10
2018-05-11T08:27:52.882Z,68.10
2018-05-11T08:30:20.433Z,69.10
2018-05-11T08:32:47.962Z,72.00
2018-05-11T08:35:15.508Z,72.30
2018-05-11T08:37:43.026Z,73.70
2018-05-11T08:40:11.122Z,77.40
2018-05-11T08:42:38.640Z,80.30
2018-05-11T08:45:06.181Z,81.20
2018-05-11T08:47:33.705Z,80.60
2018-05-11T08:50:01.225Z,77.10
2018-05-11T08:52:28.768Z,68.60
2018-05-11T08:54:56.288Z,69.50
2018-05-11T08:57:23.834Z,71.00
2018-05-11T08:59:51.358Z,70.60
2018-05-11T09:02:19.675Z,72.70
2018-05-11T09:04:47.202Z,72.60
2018-05-11T09:07:14.804Z,72.20
2018-05-11T09:09:43.056Z,75.50
2018-05-11T09:12:10.949Z,75.40
2018-05-11T09:14:39.233Z,76.20
2018-05-11T09:17:06.777Z,76.20
2018-05-11T09:19:38.631Z,72.50
2018-05-11T09:22:08.120Z,71.10
2018-05-11T09:24:35.609Z,71.20
2018-05-11T09:27:03.913Z,70.30
2018-05-11T09:29:31.431Z,70.30
2018-05-11T09:31:58.976Z,75.10
2018-05-11T09:34:26.497Z,80.10
2018-05-11T09:36:54.042Z,76.80
2018-05-11T09:39:22.419Z,81.80
2018-05-11T09:41:49.910Z,81.80
2018-05-11T09:44:17.432Z,71.40
2018-05-11T09:46:44.948Z,72.10
2018-05-11T09:49:12.493Z,71.50
2018-05-11T09:51:40.027Z,67.40
2018-05-11T09:54:08.351Z,68.30
2018-05-11T09:56:35.868Z,68.30
2018-05-11T09:59:04.172Z,70.80
2018-05-11T10:01:31.693Z,69.80
2018-05-11T10:03:59.241Z,68.30
2018-05-11T10:06:26.755Z,65.40
2018-05-11T10:08:55.169Z,67.50
2018-05-11T10:11:22.683Z,67.50
2018-05-11T10:13:50.449Z,65.50
2018-05-11T10:16:18.753Z,63.30
2018-05-11T10:18:47.059Z,58.80
2018-05-11T10:21:14.577Z,58.80
2018-05-11T10:23:42.124Z,65.70
2018-05-11T10:26:09.644Z,65.30
2018-05-11T10:28:37.165Z,62.00
2018-05-11T10:31:04.704Z,61.10
2018-05-11T10:33:32.226Z,61.40
2018-05-11T10:35:59.763Z,59.60
2018-05-11T10:38:28.046Z,67.20
2018-05-11T10:40:56.359Z,61.20
2018-05-11T10:43:23.880Z,61.20
2018-05-11T10:45:52.184Z,65.20
2018-05-11T10:48:19.707Z,65.10
2018-05-11T10:50:47.248Z,64.30
2018-05-11T10:53:14.765Z,66.20
2018-05-11T10:55:42.309Z,70.10
2018-05-11T10:58:11.317Z,72.30
2018-05-11T11:00:39.618Z,71.40
2018-05-11T11:03:07.131Z,71.20
2018-05-11T11:05:34.756Z,74.30
2018-05-11T11:08:02.313Z,69.70
2018-05-11T11:10:29.825Z,70.80
2018-05-11T11:12:57.360Z,68.40
2018-05-11T11:15:24.873Z,67.50
2018-05-11T11:17:53.185Z,67.20
2018-05-11T11:20:20.705Z,67.10
2018-05-11T11:22:48.250Z,63.70
2018-05-11T11:25:15.778Z,62.30
2018-05-11T11:27:43.319Z,64.10
2018-05-11T11:30:10.853Z,65.90
2018-05-11T11:32:38.917Z,67.70
2018-05-11T11:35:06.433Z,66.80
2018-05-11T11:37:33.972Z,67.30
2018-05-11T11:40:02.257Z,67.10
2018-05-11T11:42:30.673Z,66.40
2018-05-11T11:44:58.197Z,66.30
2018-05-11T11:47:26.537Z,70.30
2018-05-11T11:49:54.072Z,70.30
2018-05-11T11:52:21.636Z,64.90
2018-05-11T11:54:49.151Z,69.80
2018-05-11T11:57:17.468Z,63.10
2018-05-11T11:59:44.984Z,63.80
2018-05-11T12:02:12.509Z,63.50
2018-05-11T12:04:40.049Z,62.90
2018-05-11T12:07:07.568Z,63.80
2018-05-11T12:09:35.110Z,60.40
2018-05-11T12:12:02.632Z,61.80
2018-05-11T12:14:30.938Z,60.40
2018-05-11T12:16:59.181Z,60.30
2018-05-11T12:19:27.484Z,64.00
2018-05-11T12:21:54.999Z,64.00
2018-05-11T12:24:22.535Z,66.20
2018-05-11T12:26:50.047Z,65.00
2018-05-11T12:29:18.357Z,69.60
2018-05-11T12:31:45.877Z,69.60
2018-05-11T12:34:14.972Z,67.40
2018-05-11T12:36:43.251Z,65.70
2018-05-11T12:39:11.566Z,63.00
2018-05-11T12:41:39.093Z,63.00
2018-05-11T12:44:07.381Z,62.00
2018-05-11T12:46:35.709Z,65.40
2018-05-11T12:49:03.221Z,65.40
2018-05-11T12:51:31.531Z,66.90
2018-05-11T12:53:59.052Z,66.80
2018-05-11T12:56:26.591Z,64.70
2018-05-11T12:58:54.100Z,62.00
2018-05-11T13:01:21.688Z,64.90
2018-05-11T13:03:49.212Z,62.00
2018-05-11T13:06:16.767Z,66.90
2018-05-11T13:08:44.285Z,61.40
2018-05-11T13:11:11.826Z,62.10
2018-05-11T13:13:39.340Z,61.90
2018-05-11T13:16:06.888Z,60.30
2018-05-11T13:18:34.405Z,63.20
2018-05-11T13:21:01.926Z,67.90
2018-05-11T13:23:29.465Z,67.20
2018-05-11T13:25:56.981Z,70.50
2018-05-11T13:28:25.281Z,68.00
2018-05-11T13:30:52.805Z,67.90
2018-05-11T13:33:20.345Z,72.20
2018-05-11T13:35:47.856Z,69.40
2018-05-11T13:38:15.389Z,70.10
2018-05-11T13:40:42.907Z,70.20
2018-05-11T13:43:10.452Z,69.20
2018-05-11T13:45:37.972Z,68.50
2018-05-11T13:48:05.523Z,71.00
2018-05-11T13:50:33.044Z,71.30
2018-05-11T13:53:00.579Z,73.30
2018-05-11T13:55:28.942Z,74.40
2018-05-11T13:57:56.425Z,74.30
2018-05-11T14:00:24.706Z,72.00
2018-05-11T14:02:54.484Z,73.00
2018-05-11T14:05:23.505Z,70.40
2018-05-11T14:07:51.805Z,70.60
2018-05-11T14:10:19.421Z,70.10
2018-05-11T14:12:47.665Z,68.30
2018-05-11T14:15:15.176Z,68.80
2018-05-11T14:17:42.696Z,71.10
2018-05-11T14:20:10.260Z,69.10
2018-05-11T14:22:37.777Z,65.70
2018-05-11T14:25:05.313Z,67.30
2018-05-11T14:27:32.837Z,71.00
2018-05-11T14:30:00.379Z,72.60
2018-05-11T14:32:28.664Z,73.10
2018-05-11T14:34:56.963Z,72.50
2018-05-11T14:37:26.487Z,72.50
2018-05-11T14:39:54.017Z,74.80
2018-05-11T14:42:22.300Z,72.50
2018-05-11T14:44:50.602Z,73.20
2018-05-11T14:47:18.124Z,73.10
2018-05-11T14:49:45.740Z,71.10
2018-05-11T14:52:13.200Z,73.30
2018-05-11T14:54:40.708Z,74.10
2018-05-11T14:57:08.240Z,73.10
2018-05-11T14:59:35.761Z,71.30
2018-05-11T15:02:04.065Z,73.20
2018-05-11T15:04:31.580Z,73.00
2018-05-11T15:06:59.129Z,73.10
2018-05-11T15:09:26.651Z,75.60
2018-05-11T15:11:54.193Z,73.30
2018-05-11T15:14:21.709Z,75.00
2018-05-11T15:16:49.252Z,74.60
2018-05-11T15:19:16.770Z,76.80
2018-05-11T15:21:45.090Z,76.90
2018-05-11T15:24:12.613Z,76.80
2018-05-11T15:26:40.912Z,76.30
2018-05-11T15:29:08.425Z,76.20
2018-05-11T15:31:35.963Z,76.30
2018-05-11T15:34:03.481Z,76.60
2018-05-11T15:36:31.037Z,74.70
2018-05-11T15:38:59.325Z,74.60
2018-05-11T15:41:27.611Z,76.60
2018-05-11T15:43:55.912Z,73.60
2018-05-11T15:46:23.432Z,73.50
2018-05-11T15:48:50.968Z,74.60
2018-05-11T15:51:18.491Z,74.30
2018-05-11T15:53:46.025Z,76.00
2018-05-11T15:56:14.091Z,78.00
2018-05-11T15:58:41.636Z,79.90
2018-05-11T16:01:09.152Z,80.10
2018-05-11T16:03:37.452Z,78.60
2018-05-11T16:06:05.122Z,78.70
2018-05-11T16:08:32.657Z,80.60
2018-05-11T16:11:00.943Z,82.80
2018-05-11T16:13:28.476Z,82.80
2018-05-11T16:15:56.014Z,84.40
2018-05-11T16:18:23.551Z,86.60
2018-05-11T16:20:51.066Z,83.00
2018-05-11T16:23:18.609Z,82.90
2018-05-11T16:25:46.144Z,84.90
2018-05-11T16:28:13.733Z,84.30
2018-05-11T16:30:41.217Z,82.50
2018-05-11T16:33:08.737Z,82.10
2018-05-11T16:35:36.271Z,81.40
2018-05-11T16:38:04.800Z,80.50
2018-05-11T16:40:32.365Z,80.90
2018-05-11T16:42:59.872Z,82.20
2018-05-11T16:45:28.179Z,86.30
2018-05-11T16:47:55.711Z,85.40
2018-05-11T16:50:24.017Z,88.20
2018-05-11T16:52:51.541Z,88.10
2018-05-11T16:55:19.846Z,87.10
2018-05-11T16:57:47.371Z,87.00
2018-05-11T17:00:14.911Z,89.60
2018-05-11T17:02:42.429Z,88.70
2018-05-11T17:05:09.952Z,89.30
2018-05-11T17:07:37.485Z,90.80
2018-05-11T17:10:05.010Z,91.30
2018-05-11T17:12:33.314Z,92.80
2018-05-11T17:15:00.833Z,92.80
2018-05-11T17:17:28.368Z,92.60
2018-05-11T17:19:55.903Z,92.40
2018-05-11T17:22:23.436Z,92.90
2018-05-11T17:24:51.724Z,94.90
2018-05-11T17:27:20.028Z,95.20
2018-05-11T17:29:47.553Z,95.20
2018-05-11T17:32:15.856Z,99.90
2018-05-11T17:34:43.377Z,99.90
2018-05-11T17:37:10.916Z,99.90
2018-05-11T17:39:38.433Z,99.90
2018-05-11T17:42:06.749Z,99.90
2018-05-11T17:44:34.263Z,99.90
2018-05-11T17:47:02.557Z,99.90
2018-05-11T17:49:30.861Z,99.90
2018-05-11T17:51:58.389Z,99.90
2018-05-11T17:54:26.697Z,99.90
2018-05-11T17:56:54.257Z,99.90
2018-05-11T17:59:22.550Z,99.90
2018-05-11T18:01:50.074Z,99.90
2018-05-11T18:04:18.378Z,99.90
2018-05-11T18:06:45.897Z,99.90
2018-05-11T18:09:13.432Z,99.90
2018-05-11T18:11:40.975Z,99.90
2018-05-11T18:14:09.353Z,99.90
2018-05-11T18:16:36.880Z,99.90
2018-05-11T18:19:05.271Z,99.90
2018-05-11T18:21:32.728Z,99.90
2018-05-11T18:24:01.029Z,99.90
2018-05-11T18:26:28.548Z,99.90
2018-05-11T18:28:56.100Z,99.90
2018-05-11T18:31:23.617Z,99.90
2018-05-11T18:33:51.132Z,99.90
2018-05-11T18:36:18.673Z,99.90
2018-05-11T18:38:46.194Z,99.90
2018-05-11T18:41:14.496Z,99.90
2018-05-11T18:43:42.014Z,99.90
2018-05-11T18:46:10.321Z,99.90
2018-05-11T18:48:38.602Z,99.90
2018-05-11T18:51:06.140Z,99.90
2018-05-11T18:53:33.878Z,99.90
2018-05-11T18:56:01.224Z,99.90
2018-05-11T18:58:28.740Z,99.90
2018-05-11T19:00:57.050Z,99.90
2018-05-11T19:03:24.565Z,99.90
2018-05-11T19:05:52.108Z,99.90
2018-05-11T19:08:19.637Z,99.90
2018-05-11T19:10:48.346Z,99.90
2018-05-11T19:13:15.870Z,99.90
2018-05-11T19:15:43.407Z,99.90
2018-05-11T19:18:10.928Z,99.90
2018-05-11T19:20:38.439Z,99.90
2018-05-11T19:23:06.742Z,99.90
2018-05-11T19:25:34.268Z,99.90
2018-05-11T19:28:01.804Z,99.90
2018-05-11T19:30:29.322Z,99.90
2018-05-11T19:32:57.630Z,99.90
2018-05-11T19:35:25.151Z,99.90
2018-05-11T19:37:53.447Z,99.90
2018-05-11T19:40:21.738Z,99.90
2018-05-11T19:42:49.276Z,99.90
2018-05-11T19:45:17.556Z,99.90
2018-05-11T19:47:45.855Z,99.90
2018-05-11T19:50:13.368Z,99.90
2018-05-11T19:52:42.188Z,99.90
2018-05-11T19:55:10.482Z,99.90
2018-05-11T19:57:38.786Z,99.90
2018-05-11T20:00:06.305Z,99.90
2018-05-11T20:02:33.848Z,99.90
2018-05-11T20:05:01.374Z,99.90
2018-05-11T20:07:28.911Z,99.90
2018-05-11T20:09:57.271Z,99.90
2018-05-11T20:12:24.762Z,99.90
2018-05-11T20:14:52.286Z,99.90
2018-05-11T20:17:19.804Z,99.90
2018-05-11T20:19:47.343Z,99.90
2018-05-11T20:22:15.625Z,99.90
2018-05-11T20:24:43.924Z,99.90
2018-05-11T20:27:11.445Z,99.90
2018-05-11T20:29:38.986Z,99.90
2018-05-11T20:32:06.505Z,99.90
2018-05-11T20:34:34.065Z,99.90
2018-05-11T20:37:01.581Z,99.90
2018-05-11T20:39:29.205Z,99.90
2018-05-11T20:41:56.741Z,99.90
2018-05-11T20:44:25.061Z,99.90
2018-05-11T20:46:52.580Z,99.90
2018-05-11T20:49:20.889Z,99.90
2018-05-11T20:51:48.409Z,99.90
2018-05-11T20:54:16.029Z,99.90
2018-05-11T20:56:43.542Z,99.90
2018-05-11T20:59:11.945Z,99.90
2018-05-11T21:01:41.039Z,99.90
2018-05-11T21:04:09.338Z,99.90
2018-05-11T21:06:36.873Z,99.90
2018-05-11T21:09:04.396Z,99.90
2018-05-11T21:11:31.934Z,99.90
2018-05-11T21:13:59.453Z,99.90
2018-05-11T21:16:27.001Z,99.90
2018-05-11T21:18:54.517Z,99.90
2018-05-11T21:21:22.051Z,99.90
2018-05-11T21:23:49.573Z,99.90
2018-05-11T21:26:17.114Z,99.90
2018-05-11T21:28:44.632Z,99.90
2018-05-11T21:31:12.944Z,99.90
2018-05-11T21:33:40.460Z,99.90
2018-05-11T21:36:08.000Z,99.90
2018-05-11T21:38:35.517Z,99.90
2018-05-11T21:41:03.817Z,99.90
2018-05-11T21:43:31.360Z,99.90
2018-05-11T21:45:59.650Z,99.90
2018-05-11T21:48:27.180Z,99.90
2018-05-11T21:50:54.701Z,99.90
2018-05-11T21:53:22.238Z,99.90
2018-05-11T21:55:49.752Z,99.90
2018-05-11T21:58:17.288Z,99.90
2018-05-11T22:00:44.809Z,99.90
2018-05-11T22:03:13.113Z,99.90
2018-05-11T22:05:40.635Z,99.90
2018-05-11T22:08:08.173Z,99.90
2018-05-11T22:10:36.584Z,99.90
2018-05-11T22:13:04.123Z,99.90
2018-05-11T22:15:31.639Z,99.90
2018-05-11T22:17:59.951Z,99.90
2018-05-11T22:20:27.471Z,99.90
2018-05-11T22:22:55.752Z,99.90
2018-05-11T22:25:24.057Z,99.90
2018-05-11T22:27:51.573Z,99.90
2018-05-11T22:30:19.108Z,99.90
2018-05-11T22:32:46.623Z,99.90
2018-05-11T22:35:14.921Z,99.90
2018-05-11T22:37:42.445Z,99.90
2018-05-11T22:40:11.485Z,99.90
2018-05-11T22:42:39.004Z,99.90
2018-05-11T22:45:06.544Z,99.90
2018-05-11T22:47:34.064Z,99.90
2018-05-11T22:50:01.608Z,99.90
2018-05-11T22:52:30.150Z,99.90
2018-05-11T22:54:57.684Z,99.90
2018-05-11T22:57:25.209Z,99.90
2018-05-11T22:59:52.740Z,99.90
2018-05-11T23:02:20.262Z,99.90
2018-05-11T23:04:47.804Z,99.90
2018-05-11T23:07:15.327Z,99.90
2018-05-11T23:09:42.850Z,99.90
2018-05-11T23:12:11.148Z,99.90
2018-05-11T23:14:38.664Z,99.90
2018-05-11T23:17:07.006Z,99.90
2018-05-11T23:19:34.520Z,99.90
2018-05-11T23:22:02.059Z,99.90
2018-05-11T23:24:29.576Z,99.90
2018-05-11T23:26:57.116Z,99.90
2018-05-11T23:29:25.213Z,99.90
2018-05-11T23:31:52.753Z,99.90
2018-05-11T23:34:21.035Z,99.90
2018-05-11T23:36:48.584Z,99.90
2018-05-11T23:39:17.606Z,99.90
2018-05-11T23:41:45.910Z,99.90
2018-05-11T23:44:13.433Z,99.90
2018-05-11T23:46:40.969Z,99.90
2018-05-11T23:49:08.485Z,99.90
2018-05-11T23:51:36.783Z,99.90
2018-05-11T23:54:04.304Z,99.90
2018-05-11T23:56:33.348Z,99.90
2018-05-11T23:59:00.870Z,99.90
